createdAt,value
2023-01-09T00:00:28.305Z,98749.59
2023-01-09T00:02:54.775Z,98739.78
2023-01-09T00:05:21.617Z,98742.72
2023-01-09T00:07:48.147Z,98731.03
2023-01-09T00:10:15.443Z,98725.59
2023-01-09T00:12:42.120Z,98726.66
2023-01-09T00:15:09.478Z,98731.03
2023-01-09T00:17:36.004Z,98722.25
2023-01-09T00:20:02.548Z,98714.91
2023-01-09T00:22:28.963Z,98711.19
2023-01-09T00:24:55.366Z,98716.81
2023-01-09T00:27:21.782Z,98711.41
2023-01-09T00:29:49.441Z,98697.63
2023-01-09T00:32:16.413Z,98698.66
2023-01-09T00:34:45.497Z,98698.47
2023-01-09T00:37:12.657Z,98703.06
2023-01-09T00:39:39.771Z,98694.28
2023-01-09T00:42:10.349Z,98702.41
2023-01-09T00:44:49.437Z,98705.97
2023-01-09T00:47:30.014Z,98695.94
2023-01-09T00:50:00.744Z,98698.91
2023-01-09T00:52:30.287Z,98691.34
2023-01-09T00:54:58.824Z,98694.06
2023-01-09T00:57:25.574Z,98691.34
2023-01-09T00:59:55.095Z,98696.78
2023-01-09T01:02:21.724Z,98697.63
2023-01-09T01:05:06.640Z,98689.28
2023-01-09T01:07:39.577Z,98698.47
2023-01-09T01:10:13.034Z,98702.63
2023-01-09T01:12:40.339Z,98696.97
2023-01-09T01:15:10.438Z,98696.75
2023-01-09T01:17:39.322Z,98690.47
2023-01-09T01:20:08.506Z,98709.28
2023-01-09T01:22:37.363Z,98706.38
2023-01-09T01:25:05.679Z,98716.81
2023-01-09T01:27:32.078Z,98711.16
2023-01-09T01:29:58.531Z,98707.59
2023-01-09T01:32:27.959Z,98714.72
2023-01-09T01:34:54.407Z,98711.78
2023-01-09T01:37:21.944Z,98715.56
2023-01-09T01:39:48.485Z,98716.19
2023-01-09T01:42:15.265Z,98714.31
2023-01-09T01:45:05.588Z,98715.16
2023-01-09T01:47:44.080Z,98721.81
2023-01-09T01:50:24.664Z,98720.16
2023-01-09T01:53:21.621Z,98723.28
2023-01-09T01:56:03.089Z,98729.34
2023-01-09T01:58:30.653Z,98727.44
2023-01-09T02:00:57.315Z,98723.28
2023-01-09T02:03:30.751Z,98729.75
2023-01-09T02:05:57.193Z,98724.72
2023-01-09T02:08:23.761Z,98719.72
2023-01-09T02:10:54.486Z,98722.41
2023-01-09T02:13:20.955Z,98719.50
2023-01-09T02:16:12.237Z,98720.78
2023-01-09T02:18:48.488Z,98712.00
2023-01-09T02:21:41.500Z,98711.16
2023-01-09T02:24:44.760Z,98703.00
2023-01-09T02:27:32.862Z,98702.22
2023-01-09T02:30:10.857Z,98686.13
2023-01-09T02:33:23.366Z,98682.13
2023-01-09T02:36:11.785Z,98696.34
2023-01-09T02:38:59.960Z,98714.75
2023-01-09T02:41:43.249Z,98709.53
2023-01-09T02:44:18.462Z,98711.00
2023-01-09T02:46:44.839Z,98718.53
2023-01-09T02:49:13.532Z,98715.41
2023-01-09T02:52:00.804Z,98714.56
2023-01-09T02:55:08.486Z,98720.59
2023-01-09T02:58:07.699Z,98723.56
2023-01-09T03:01:04.835Z,98730.22
2023-01-09T03:03:36.135Z,98736.25
2023-01-09T03:06:12.681Z,98743.38
2023-01-09T03:08:43.357Z,98745.03
2023-01-09T03:11:11.782Z,98756.31
2023-01-09T03:13:49.588Z,98759.84
2023-01-09T03:16:21.631Z,98769.66
2023-01-09T03:18:50.606Z,98769.47
2023-01-09T03:21:17.603Z,98781.13
2023-01-09T03:23:50.477Z,98791.19
2023-01-09T03:26:17.404Z,98794.09
2023-01-09T03:28:46.693Z,98788.88
2023-01-09T03:31:13.560Z,98803.28
2023-01-09T03:33:40.259Z,98798.91
2023-01-09T03:36:07.496Z,98808.53
2023-01-09T03:38:36.256Z,98808.72
2023-01-09T03:41:03.540Z,98810.41
2023-01-09T03:43:30.596Z,98806.22
2023-01-09T03:45:57.639Z,98816.25
2023-01-09T03:48:24.239Z,98813.75
2023-01-09T03:50:52.610Z,98814.78
2023-01-09T03:53:20.616Z,98820.84
2023-01-09T03:55:48.705Z,98827.13
2023-01-09T03:58:15.735Z,98833.41
2023-01-09T04:00:52.178Z,98854.03
2023-01-09T04:03:20.637Z,98867.19
2023-01-09T04:05:49.200Z,98877.81
2023-01-09T04:08:16.619Z,98883.66
2023-01-09T04:10:50.249Z,98887.22
2023-01-09T04:13:16.825Z,98892.00
2023-01-09T04:15:43.383Z,98904.50
2023-01-09T04:18:09.818Z,98914.53
2023-01-09T04:20:36.279Z,98932.88
2023-01-09T04:23:05.126Z,98940.59
2023-01-09T04:25:31.620Z,98949.94
2023-01-09T04:27:58.091Z,98946.63
2023-01-09T04:30:25.069Z,98952.25
2023-01-09T04:32:54.105Z,98959.53
2023-01-09T04:35:20.553Z,98963.09
2023-01-09T04:37:47.496Z,98972.66
2023-01-09T04:40:14.987Z,98979.56
2023-01-09T04:42:41.549Z,98982.66
2023-01-09T04:45:09.968Z,98996.44
2023-01-09T04:47:36.516Z,98995.38
2023-01-09T04:50:03.151Z,98997.47
2023-01-09T04:52:29.579Z,99003.50
2023-01-09T04:54:56.056Z,99012.22
2023-01-09T04:57:22.474Z,99008.06
2023-01-09T04:59:52.213Z,99012.84
2023-01-09T05:02:18.858Z,99017.44
2023-01-09T05:04:45.395Z,99018.28
2023-01-09T05:07:11.882Z,99012.63
2023-01-09T05:09:38.303Z,99023.88
2023-01-09T05:12:05.139Z,99032.84
2023-01-09T05:14:31.621Z,99027.00
2023-01-09T05:16:58.041Z,99050.31
2023-01-09T05:19:24.666Z,99049.25
2023-01-09T05:21:53.520Z,99054.41
2023-01-09T05:24:20.184Z,99061.31
2023-01-09T05:26:52.002Z,99070.66
2023-01-09T05:29:18.632Z,99083.38
2023-01-09T05:31:52.937Z,99080.66
2023-01-09T05:34:22.649Z,99086.22
2023-01-09T05:36:49.208Z,99076.19
2023-01-09T05:39:15.821Z,99074.03
2023-01-09T05:41:42.374Z,99080.59
2023-01-09T05:44:11.330Z,99074.28
2023-01-09T05:46:37.742Z,99088.00
2023-01-09T05:49:04.439Z,99083.06
2023-01-09T05:51:33.744Z,99079.09
2023-01-09T05:54:00.247Z,99086.28
2023-01-09T06:00:20.063Z,99101.84
2023-01-09T06:02:46.650Z,99116.78
2023-01-09T06:05:15.606Z,99118.94
2023-01-09T06:07:42.074Z,99117.34
2023-01-09T06:10:13.698Z,99129.75
2023-01-09T06:12:40.751Z,99130.19
2023-01-09T06:15:09.074Z,99139.03
2023-01-09T06:17:35.754Z,99130.91
2023-01-09T06:20:02.878Z,99132.13
2023-01-09T06:22:29.389Z,99132.56
2023-01-09T06:24:58.309Z,99147.22
2023-01-09T06:27:24.676Z,99151.41
2023-01-09T06:29:51.171Z,99145.81
2023-01-09T06:32:17.629Z,99143.28
2023-01-09T06:34:44.081Z,99152.06
2023-01-09T06:37:10.787Z,99155.16
2023-01-09T06:39:39.424Z,99168.50
2023-01-09T06:42:06.173Z,99163.91
2023-01-09T06:44:33.188Z,99165.59
2023-01-09T06:47:02.664Z,99167.47
2023-01-09T06:49:29.027Z,99162.06
2023-01-09T06:51:55.756Z,99173.53
2023-01-09T06:54:22.160Z,99164.75
2023-01-09T06:56:48.548Z,99166.63
2023-01-09T06:59:15.543Z,99163.53
2023-01-09T07:01:42.218Z,99166.06
2023-01-09T07:04:12.364Z,99154.56
2023-01-09T07:06:39.214Z,99155.63
2023-01-09T07:09:08.079Z,99161.84
2023-01-09T07:11:34.517Z,99158.31
2023-01-09T07:14:00.969Z,99165.59
2023-01-09T07:16:27.424Z,99161.84
2023-01-09T07:18:54.783Z,99152.53
2023-01-09T07:21:21.395Z,99157.72
2023-01-09T07:23:47.780Z,99155.41
2023-01-09T07:26:16.563Z,99151.69
2023-01-09T07:28:43.025Z,99167.25
2023-01-09T07:31:09.433Z,99169.97
2023-01-09T07:33:38.176Z,99164.56
2023-01-09T07:36:08.063Z,99171.66
2023-01-09T07:38:36.729Z,99159.13
2023-01-09T07:41:03.778Z,99161.47
2023-01-09T07:43:35.191Z,99168.94
2023-01-09T07:46:01.727Z,99174.38
2023-01-09T07:48:28.193Z,99170.38
2023-01-09T07:50:57.117Z,99168.03
2023-01-09T07:53:26.077Z,99177.66
2023-01-09T07:55:52.498Z,99177.34
2023-01-09T07:58:18.982Z,99175.34
2023-01-09T08:00:45.333Z,99179.94
2023-01-09T08:03:11.804Z,99192.41
2023-01-09T08:05:38.254Z,99194.69
2023-01-09T08:08:04.739Z,99191.16
2023-01-09T08:10:31.211Z,99190.75
2023-01-09T08:12:57.647Z,99195.66
2023-01-09T08:15:24.140Z,99187.75
2023-01-09T08:17:50.563Z,99200.28
2023-01-09T08:20:17.600Z,99191.13
2023-01-09T08:22:49.726Z,99195.53
2023-01-09T08:25:17.828Z,99193.72
2023-01-09T08:27:44.901Z,99185.97
2023-01-09T08:30:14.897Z,99192.81
2023-01-09T08:32:41.505Z,99192.88
2023-01-09T08:35:09.039Z,99197.19
2023-01-09T08:37:35.831Z,99200.16
2023-01-09T08:40:04.640Z,99209.03
2023-01-09T08:42:49.824Z,99204.06
2023-01-09T08:45:35.371Z,99209.13
2023-01-09T08:48:01.881Z,99212.81
2023-01-09T08:50:28.311Z,99212.59
2023-01-09T08:52:57.041Z,99205.69
2023-01-09T08:55:23.556Z,99213.66
2023-01-09T08:57:53.621Z,99224.31
2023-01-09T09:00:23.430Z,99229.16
2023-01-09T09:02:59.047Z,99232.53
2023-01-09T09:05:27.938Z,99238.78
2023-01-09T09:07:55.738Z,99243.16
2023-01-09T09:10:27.109Z,99256.78
2023-01-09T09:12:55.763Z,99254.28
2023-01-09T09:15:26.283Z,99253.88
2023-01-09T09:18:04.045Z,99258.25
2023-01-09T09:20:32.549Z,99250.53
2023-01-09T09:22:59.251Z,99249.47
2023-01-09T09:25:26.386Z,99241.97
2023-01-09T09:27:52.943Z,99243.22
2023-01-09T09:30:20.235Z,99241.16
2023-01-09T09:32:47.464Z,99242.59
2023-01-09T09:35:14.490Z,99239.13
2023-01-09T09:37:41.835Z,99247.84
2023-01-09T09:40:20.285Z,99248.03
2023-01-09T09:43:35.565Z,99258.31
2023-01-09T09:46:28.321Z,99258.75
2023-01-09T09:48:57.782Z,99259.78
2023-01-09T09:51:31.916Z,99267.53
2023-01-09T09:54:13.768Z,99256.69
2023-01-09T09:56:52.033Z,99264.81
2023-01-09T09:59:27.084Z,99265.84
2023-01-09T10:02:04.922Z,99268.16
2023-01-09T10:04:34.118Z,99266.47
2023-01-09T10:07:06.619Z,99274.63
2023-01-09T10:09:51.169Z,99274.88
2023-01-09T10:12:31.825Z,99260.50
2023-01-09T10:15:04.014Z,99270.09
2023-01-09T10:17:40.186Z,99272.59
2023-01-09T10:20:24.805Z,99276.31
2023-01-09T10:23:24.389Z,99279.41
2023-01-09T10:26:19.004Z,99279.59
2023-01-09T10:29:23.173Z,99284.19
2023-01-09T10:32:08.653Z,99269.59
2023-01-09T10:35:17.593Z,99262.56
2023-01-09T10:37:48.895Z,99264.28
2023-01-09T10:40:21.998Z,99257.19
2023-01-09T10:42:54.323Z,99264.78
2023-01-09T10:45:35.800Z,99251.84
2023-01-09T10:48:20.557Z,99258.13
2023-01-09T10:50:49.768Z,99265.22
2023-01-09T10:53:27.783Z,99269.34
2023-01-09T10:56:05.409Z,99267.69
2023-01-09T10:58:31.904Z,99271.59
2023-01-09T11:01:01.373Z,99274.06
2023-01-09T11:03:28.907Z,99277.63
2023-01-09T11:05:58.694Z,99270.13
2023-01-09T11:08:36.959Z,99261.78
2023-01-09T11:11:04.675Z,99260.56
2023-01-09T11:13:33.769Z,99261.19
2023-01-09T11:16:20.686Z,99256.34
2023-01-09T11:18:54.260Z,99255.97
2023-01-09T11:21:35.793Z,99257.06
2023-01-09T11:24:24.002Z,99260.00
2023-01-09T11:27:11.796Z,99252.03
2023-01-09T11:29:38.937Z,99256.44
2023-01-09T11:32:05.924Z,99257.72
2023-01-09T11:34:36.260Z,99256.06
2023-01-09T11:37:11.675Z,99256.72
2023-01-09T11:39:42.044Z,99268.56
2023-01-09T11:42:51.491Z,99266.44
2023-01-09T11:45:20.758Z,99261.16
2023-01-09T11:47:47.795Z,99255.69
2023-01-09T11:50:25.941Z,99255.50
2023-01-09T11:53:13.883Z,99243.09
2023-01-09T11:55:42.984Z,99251.47
2023-01-09T11:58:18.584Z,99252.91
2023-01-09T12:01:07.251Z,99255.06
2023-01-09T12:04:11.703Z,99250.63
2023-01-09T12:07:00.507Z,99252.31
2023-01-09T12:09:35.817Z,99260.63
2023-01-09T12:12:24.185Z,99256.00
2023-01-09T12:15:27.216Z,99250.75
2023-01-09T12:17:59.216Z,99254.31
2023-01-09T12:20:53.904Z,99252.44
2023-01-09T12:24:00.479Z,99243.03
2023-01-09T12:26:32.240Z,99238.03
2023-01-09T12:29:17.973Z,99245.16
2023-01-09T12:32:02.504Z,99243.72
2023-01-09T12:34:36.681Z,99244.75
2023-01-09T12:37:23.026Z,99243.59
2023-01-09T12:40:13.099Z,99251.56
2023-01-09T12:42:56.812Z,99255.00
2023-01-09T12:45:47.507Z,99245.00
2023-01-09T12:48:49.307Z,99255.88
2023-01-09T12:51:53.842Z,99259.25
2023-01-09T12:54:34.414Z,99247.72
2023-01-09T12:57:06.678Z,99257.28
2023-01-09T12:59:43.920Z,99249.56
2023-01-09T13:02:28.228Z,99256.59
2023-01-09T13:05:02.777Z,99253.47
2023-01-09T13:08:09.913Z,99254.47
2023-01-09T13:10:45.507Z,99256.03
2023-01-09T13:13:29.543Z,99251.19
2023-01-09T13:16:00.861Z,99266.03
2023-01-09T13:18:41.876Z,99265.84
2023-01-09T13:21:09.655Z,99269.63
2023-01-09T13:24:13.433Z,99278.31
2023-01-09T13:26:43.730Z,99281.44
2023-01-09T13:29:16.314Z,99286.63
2023-01-09T13:31:54.535Z,99279.44
2023-01-09T13:34:25.056Z,99274.41
2023-01-09T13:36:54.714Z,99278.56
2023-01-09T13:39:24.875Z,99283.34
2023-01-09T13:42:17.451Z,99275.22
2023-01-09T13:44:45.749Z,99279.41
2023-01-09T13:47:25.021Z,99278.78
2023-01-09T13:49:51.810Z,99286.09
2023-01-09T13:52:37.570Z,99293.59
2023-01-09T13:55:16.135Z,99305.31
2023-01-09T13:57:44.626Z,99306.16
2023-01-09T14:00:17.100Z,99311.16
2023-01-09T14:02:46.822Z,99311.16
2023-01-09T14:05:37.082Z,99319.13
2023-01-09T14:08:07.205Z,99317.44
2023-01-09T14:10:49.267Z,99320.78
2023-01-09T14:13:20.611Z,99318.91
2023-01-09T14:15:49.681Z,99321.19
2023-01-09T14:18:24.740Z,99321.34
2023-01-09T14:20:58.021Z,99324.47
2023-01-09T14:23:50.379Z,99331.72
2023-01-09T14:26:18.980Z,99330.63
2023-01-09T14:28:47.921Z,99339.16
2023-01-09T14:31:28.970Z,99350.78
2023-01-09T14:34:30.978Z,99356.78
2023-01-09T14:37:01.428Z,99366.91
2023-01-09T14:39:31.869Z,99369.13
2023-01-09T14:42:09.172Z,99379.53
2023-01-09T14:44:48.859Z,99387.00
2023-01-09T14:47:20.898Z,99386.81
2023-01-09T14:49:51.804Z,99379.53
2023-01-09T14:52:31.783Z,99387.91
2023-01-09T14:55:04.022Z,99390.44
2023-01-09T14:57:33.988Z,99388.16
2023-01-09T15:00:02.244Z,99388.22
2023-01-09T15:02:33.887Z,99395.78
2023-01-09T15:05:17.186Z,99398.09
2023-01-09T15:07:54.389Z,99402.91
2023-01-09T15:10:29.199Z,99400.59
2023-01-09T15:13:01.329Z,99408.50
2023-01-09T15:15:28.660Z,99410.38
2023-01-09T15:17:58.917Z,99405.78
2023-01-09T15:20:30.754Z,99411.63
2023-01-09T15:23:00.639Z,99413.88
2023-01-09T15:25:38.780Z,99414.28
2023-01-09T15:28:31.959Z,99415.03
2023-01-09T15:31:06.336Z,99410.78
2023-01-09T15:33:34.118Z,99418.00
2023-01-09T15:36:06.394Z,99415.19
2023-01-09T15:38:36.242Z,99425.97
2023-01-09T15:41:12.452Z,99427.00
2023-01-09T15:43:44.028Z,99427.31
2023-01-09T15:46:12.225Z,99436.56
2023-01-09T15:48:38.807Z,99436.72
2023-01-09T15:51:17.117Z,99447.72
2023-01-09T15:53:50.873Z,99456.63
2023-01-09T15:56:23.897Z,99455.31
2023-01-09T15:58:54.694Z,99458.00
2023-01-09T16:01:31.861Z,99452.47
2023-01-09T16:04:11.426Z,99464.47
2023-01-09T16:06:58.183Z,99473.97
2023-01-09T16:09:28.335Z,99467.34
2023-01-09T16:12:00.433Z,99476.41
2023-01-09T16:14:38.138Z,99479.66
2023-01-09T16:17:07.526Z,99484.59
2023-01-09T16:19:46.337Z,99479.19
2023-01-09T16:22:25.063Z,99475.00
2023-01-09T16:24:53.678Z,99481.31
2023-01-09T16:27:33.288Z,99476.94
2023-01-09T16:30:25.542Z,99495.81
2023-01-09T16:32:52.702Z,99495.34
2023-01-09T16:35:24.882Z,99504.00
2023-01-09T16:37:51.307Z,99510.94
2023-01-09T16:40:17.768Z,99522.78
2023-01-09T16:43:03.348Z,99515.13
2023-01-09T16:45:34.306Z,99511.59
2023-01-09T16:48:12.371Z,99525.22
2023-01-09T16:50:40.193Z,99531.09
2023-01-09T16:53:19.309Z,99533.66
2023-01-09T16:55:46.896Z,99543.94
2023-01-09T16:58:30.080Z,99541.03
2023-01-09T17:00:57.561Z,99547.50
2023-01-09T17:03:24.875Z,99550.84
2023-01-09T17:05:55.069Z,99555.25
2023-01-09T17:08:27.311Z,99571.41
2023-01-09T17:10:55.331Z,99566.31
2023-01-09T17:13:22.837Z,99573.78
2023-01-09T17:15:49.751Z,99574.63
2023-01-09T17:18:21.714Z,99577.53
2023-01-09T17:20:51.326Z,99585.84
2023-01-09T17:23:17.774Z,99587.72
2023-01-09T17:26:02.868Z,99585.66
2023-01-09T17:28:32.644Z,99592.91
2023-01-09T17:31:00.566Z,99597.06
2023-01-09T17:33:27.802Z,99603.47
2023-01-09T17:35:57.063Z,99601.63
2023-01-09T17:38:23.633Z,99612.78
2023-01-09T17:40:51.131Z,99614.84
2023-01-09T17:43:21.999Z,99624.34
2023-01-09T17:45:51.260Z,99636.88
2023-01-09T17:48:22.427Z,99639.75
2023-01-09T17:50:49.267Z,99634.69
2023-01-09T17:53:17.756Z,99645.69
2023-01-09T17:55:44.223Z,99649.44
2023-01-09T17:58:24.796Z,99656.03
2023-01-09T18:00:55.063Z,99663.34
2023-01-09T18:03:23.246Z,99670.63
2023-01-09T18:05:50.040Z,99673.50
2023-01-09T18:08:16.457Z,99677.78
2023-01-09T18:10:45.370Z,99691.31
2023-01-09T18:13:14.821Z,99695.31
2023-01-09T18:15:49.705Z,99710.91
2023-01-09T18:18:19.920Z,99699.75
2023-01-09T18:20:46.493Z,99709.56
2023-01-09T18:23:13.302Z,99716.38
2023-01-09T18:25:43.335Z,99724.69
2023-01-09T18:28:10.956Z,99721.41
2023-01-09T18:30:37.653Z,99732.81
2023-01-09T18:33:04.251Z,99732.13
2023-01-09T18:35:36.111Z,99733.97
2023-01-09T18:38:02.661Z,99740.06
2023-01-09T18:40:29.244Z,99745.16
2023-01-09T18:42:59.019Z,99758.69
2023-01-09T18:45:25.838Z,99758.69
2023-01-09T18:47:54.671Z,99768.00
2023-01-09T18:50:21.075Z,99766.31
2023-01-09T18:52:47.612Z,99779.69
2023-01-09T18:55:14.181Z,99778.00
2023-01-09T18:57:43.101Z,99771.88
2023-01-09T19:00:13.062Z,99795.22
2023-01-09T19:02:46.996Z,99788.13
2023-01-09T19:05:14.704Z,99788.81
2023-01-09T19:07:41.138Z,99799.63
2023-01-09T19:10:08.389Z,99804.84
2023-01-09T19:12:34.927Z,99803.00
2023-01-09T19:15:01.558Z,99810.47
2023-01-09T19:17:27.946Z,99814.88
2023-01-09T19:19:54.466Z,99813.16
2023-01-09T19:22:20.862Z,99825.69
2023-01-09T19:24:47.340Z,99832.97
2023-01-09T19:27:13.830Z,99832.97
2023-01-09T19:29:40.307Z,99836.53
2023-01-09T19:32:08.465Z,99841.25
2023-01-09T19:34:35.621Z,99846.66
2023-01-09T19:37:02.119Z,99834.63
2023-01-09T19:39:28.685Z,99840.88
2023-01-09T19:41:56.223Z,99848.34
2023-01-09T19:44:22.609Z,99841.44
2023-01-09T19:46:52.140Z,99847.66
2023-01-09T19:49:18.946Z,99861.03
2023-01-09T19:51:46.012Z,99862.38
2023-01-09T19:54:15.023Z,99859.84
2023-01-09T19:56:44.001Z,99859.84
2023-01-09T19:59:12.051Z,99857.31
2023-01-09T20:01:41.556Z,99867.09
2023-01-09T20:04:13.558Z,99867.28
2023-01-09T20:06:43.796Z,99864.22
2023-01-09T20:09:14.566Z,99880.97
2023-01-09T20:11:41.692Z,99885.53
2023-01-09T20:14:12.724Z,99883.88
2023-01-09T20:16:39.430Z,99889.09
2023-01-09T20:19:08.435Z,99898.25
2023-01-09T20:21:35.724Z,99909.09
2023-01-09T20:24:05.310Z,99908.25
2023-01-09T20:26:34.368Z,99912.59
2023-01-09T20:29:03.394Z,99915.31
2023-01-09T20:31:33.047Z,99917.34
2023-01-09T20:33:59.891Z,99926.47
2023-01-09T20:36:29.179Z,99921.22
2023-01-09T20:39:00.329Z,99928.19
2023-01-09T20:41:30.862Z,99928.19
2023-01-09T20:44:01.589Z,99939.84
2023-01-09T20:46:33.834Z,99938.81
2023-01-09T20:49:06.404Z,99947.13
2023-01-09T20:51:40.018Z,99949.84
2023-01-09T20:54:06.540Z,99953.53
2023-01-09T20:56:36.294Z,99953.38
2023-01-09T20:59:02.932Z,99958.63
2023-01-09T21:01:29.435Z,99959.47
2023-01-09T21:03:58.971Z,99960.16
2023-01-09T21:06:27.379Z,99967.44
2023-01-09T21:08:54.101Z,99973.16
2023-01-09T21:11:26.026Z,99976.91
2023-01-09T21:13:53.207Z,99976.91
2023-01-09T21:16:29.014Z,99976.22
2023-01-09T21:18:55.551Z,99975.69
2023-01-09T21:21:24.660Z,99978.41
2023-01-09T21:23:53.322Z,99982.97
2023-01-09T21:26:23.005Z,99980.97
2023-01-09T21:28:50.839Z,99986.88
2023-01-09T21:31:22.549Z,99993.09
2023-01-09T21:33:49.400Z,99990.59
2023-01-09T21:36:16.152Z,100000.56
2023-01-09T21:38:43.086Z,99993.09
2023-01-09T21:41:29.003Z,100005.63
2023-01-09T21:44:16.587Z,100002.25
2023-01-09T21:46:51.685Z,100007.50
2023-01-09T21:49:23.242Z,100016.81
2023-01-09T21:51:49.756Z,100010.03
2023-01-09T21:54:16.359Z,100017.47
2023-01-09T21:56:45.577Z,100024.94
2023-01-09T21:59:12.348Z,100017.16
2023-01-09T22:01:39.225Z,100024.44
2023-01-09T22:04:05.823Z,100024.78
2023-01-09T22:06:32.191Z,100027.63
2023-01-09T22:08:58.623Z,100026.97
2023-01-09T22:11:25.159Z,100031.88
2023-01-09T22:13:52.089Z,100037.44
2023-01-09T22:16:21.440Z,100042.88
2023-01-09T22:18:49.415Z,100054.88
2023-01-09T22:21:17.551Z,100055.53
2023-01-09T22:23:44.240Z,100052.69
2023-01-09T22:26:15.193Z,100066.38
2023-01-09T22:28:42.114Z,100054.69
2023-01-09T22:31:15.869Z,100070.94
2023-01-09T22:33:42.413Z,100075.50
2023-01-09T22:36:11.578Z,100074.69
2023-01-09T22:38:38.401Z,100087.16
2023-01-09T22:41:05.408Z,100088.03
2023-01-09T22:43:32.325Z,100098.69
2023-01-09T22:46:04.131Z,100100.22
2023-01-09T22:48:37.136Z,100103.06
2023-01-09T22:51:08.382Z,100120.50
2023-01-09T22:53:37.426Z,100123.41
2023-01-09T22:56:05.887Z,100126.25
2023-01-09T22:58:32.722Z,100122.69
2023-01-09T23:00:59.170Z,100130.81
2023-01-09T23:03:26.811Z,100136.41
2023-01-09T23:06:07.458Z,100139.94
2023-01-09T23:08:34.690Z,100143.00
2023-01-09T23:11:01.721Z,100141.31
2023-01-09T23:13:31.421Z,100136.94
2023-01-09T23:15:58.382Z,100146.72
2023-01-09T23:18:27.506Z,100148.56
2023-01-09T23:21:03.676Z,100144.00
2023-01-09T23:23:31.630Z,100151.28
2023-01-09T23:26:00.629Z,100157.22
2023-01-09T23:28:30.787Z,100157.38
2023-01-09T23:30:57.661Z,100168.34
2023-01-09T23:33:24.579Z,100169.03
2023-01-09T23:35:51.002Z,100184.56
2023-01-09T23:38:17.536Z,100189.16
2023-01-09T23:40:48.887Z,100178.00
2023-01-09T23:43:15.671Z,100179.72
2023-01-09T23:45:45.968Z,100177.81
2023-01-09T23:48:14.539Z,100181.72
2023-01-09T23:50:49.062Z,100197.97
2023-01-09T23:53:18.917Z,100203.53
2023-01-09T23:55:48.305Z,100200.81
2023-01-09T23:58:15.090Z,100208.25
